createdAt,value
2019-04-14T00:01:34.790Z,3.90
2019-04-14T00:04:44.324Z,3.90
2019-04-14T00:07:47.799Z,3.90
2019-04-14T00:10:52.852Z,4.00
2019-04-14T00:13:56.719Z,4.00
2019-04-14T00:17:02.195Z,4.00
2019-04-14T00:20:05.447Z,4.00
2019-04-14T00:23:08.844Z,4.00
2019-04-14T00:26:29.460Z,4.00
2019-04-14T00:29:32.837Z,3.90
2019-04-14T00:32:44.372Z,3.90
2019-04-14T00:36:19.762Z,3.90
2019-04-14T00:39:27.876Z,3.80
2019-04-14T00:42:36.467Z,3.70
2019-04-14T00:46:02.997Z,3.60
2019-04-14T00:49:07.328Z,3.60
2019-04-14T00:52:10.421Z,3.50
2019-04-14T00:55:13.992Z,3.40
2019-04-14T00:58:17.139Z,3.40
2019-04-14T01:01:21.868Z,3.40
2019-04-14T01:04:25.157Z,3.40
2019-04-14T01:07:28.540Z,3.30
2019-04-14T01:10:32.181Z,3.30
2019-04-14T01:13:35.456Z,3.30
2019-04-14T01:16:38.724Z,3.20
2019-04-14T01:19:41.953Z,3.20
2019-04-14T01:22:45.245Z,3.20
2019-04-14T01:25:49.867Z,3.10
2019-04-14T01:28:53.272Z,3.10
2019-04-14T01:31:56.337Z,3.10
2019-04-14T01:34:59.458Z,3.00
2019-04-14T01:38:03.679Z,3.00
2019-04-14T01:41:06.943Z,2.90
2019-04-14T01:44:11.977Z,2.90
2019-04-14T01:47:15.884Z,2.80
2019-04-14T01:50:21.510Z,2.70
2019-04-14T01:53:53.214Z,2.70
2019-04-14T01:57:15.376Z,2.70
2019-04-14T02:00:38.223Z,2.60
2019-04-14T02:03:41.431Z,2.50
2019-04-14T02:06:44.695Z,2.50
2019-04-14T02:09:48.989Z,2.50
2019-04-14T02:12:52.320Z,2.50
2019-04-14T02:15:55.726Z,2.50
2019-04-14T02:19:00.218Z,2.50
2019-04-14T02:22:03.452Z,2.50
2019-04-14T02:25:07.672Z,2.50
2019-04-14T02:28:11.237Z,2.50
2019-04-14T02:31:29.673Z,2.50
2019-04-14T02:34:47.935Z,2.50
2019-04-14T02:37:58.503Z,2.50
2019-04-14T02:44:04.630Z,2.50
2019-04-14T02:47:27.761Z,2.50
2019-04-14T02:53:18.393Z,2.50
2019-04-14T02:56:25.178Z,2.50
2019-04-14T02:59:28.931Z,2.50
2019-04-14T03:05:35.871Z,2.50
2019-04-14T03:08:45.150Z,2.50
2019-04-14T03:11:47.557Z,2.50
2019-04-14T03:14:53.762Z,2.50
2019-04-14T03:22:08.590Z,2.50
2019-04-14T03:25:08.073Z,2.50
2019-04-14T03:28:32.991Z,2.50
2019-04-14T03:38:08.059Z,2.50
2019-04-14T03:40:54.784Z,2.50
2019-04-14T03:43:46.410Z,2.50
2019-04-14T03:56:27.036Z,2.60
2019-04-14T03:59:30.348Z,2.50
2019-04-14T04:02:33.707Z,2.50
2019-04-14T04:05:37.631Z,2.50
2019-04-14T04:08:41.976Z,2.50
2019-04-14T04:11:45.548Z,2.50
2019-04-14T04:14:48.856Z,2.50
2019-04-14T04:18:00.976Z,2.50
2019-04-14T04:21:24.818Z,2.50
2019-04-14T04:24:35.208Z,2.50
2019-04-14T04:27:50.472Z,2.60
2019-04-14T04:31:28.580Z,2.60
2019-04-14T04:34:42.948Z,2.60
2019-04-14T04:37:56.349Z,2.60
2019-04-14T04:40:59.768Z,2.60
2019-04-14T04:44:02.973Z,2.60
2019-04-14T04:47:06.159Z,2.70
2019-04-14T04:50:10.684Z,2.70
2019-04-14T04:53:13.956Z,2.70
2019-04-14T04:56:17.175Z,2.70
2019-04-14T04:59:21.273Z,2.70
2019-04-14T05:02:24.594Z,2.70
2019-04-14T05:06:07.182Z,2.60
2019-04-14T05:09:17.433Z,2.70
2019-04-14T05:12:44.095Z,2.70
2019-04-14T05:15:53.258Z,2.70
2019-04-14T05:19:10.578Z,2.70
2019-04-14T05:22:03.309Z,2.80
2019-04-14T05:25:07.833Z,2.80
2019-04-14T05:28:11.328Z,2.80
2019-04-14T05:31:14.511Z,2.90
2019-04-14T05:34:17.643Z,2.90
2019-04-14T05:37:20.710Z,2.90
2019-04-14T05:40:23.896Z,3.00
2019-04-14T05:43:36.777Z,3.00
2019-04-14T05:46:31.928Z,2.90
2019-04-14T05:49:44.217Z,2.90
2019-04-14T05:52:42.366Z,2.90
2019-04-14T05:55:46.025Z,2.90
2019-04-14T05:58:49.343Z,3.00
2019-04-14T06:01:52.541Z,2.90
2019-04-14T06:04:55.608Z,3.00
2019-04-14T06:07:58.695Z,3.00
2019-04-14T06:11:01.895Z,3.00
2019-04-14T06:14:05.117Z,3.00
2019-04-14T06:17:08.285Z,3.00
2019-04-14T06:20:11.478Z,3.00
2019-04-14T06:23:14.574Z,3.00
2019-04-14T06:26:17.913Z,3.10
2019-04-14T06:29:21.100Z,3.10
2019-04-14T06:32:30.075Z,3.20
2019-04-14T06:35:43.331Z,3.20
2019-04-14T06:38:48.605Z,3.30
2019-04-14T06:41:51.751Z,3.30
2019-04-14T06:44:54.955Z,3.40
2019-04-14T06:48:09.782Z,3.50
2019-04-14T06:51:13.028Z,3.50
2019-04-14T06:54:16.360Z,3.70
2019-04-14T06:57:19.411Z,3.70
2019-04-14T07:00:22.613Z,3.80
2019-04-14T07:03:25.704Z,3.90
2019-04-14T07:06:28.916Z,4.10
2019-04-14T07:09:32.095Z,4.20
2019-04-14T07:12:35.291Z,4.30
2019-04-14T07:15:38.487Z,4.30
2019-04-14T07:18:41.567Z,4.40
2019-04-14T07:21:44.803Z,4.30
2019-04-14T07:24:47.999Z,4.30
2019-04-14T07:27:51.160Z,4.40
2019-04-14T07:31:25.591Z,4.40
2019-04-14T07:34:46.911Z,4.40
2019-04-14T07:38:15.407Z,4.30
2019-04-14T07:41:46.878Z,4.30
2019-04-14T07:45:08.046Z,4.30
2019-04-14T07:48:17.361Z,4.30
2019-04-14T07:51:24.683Z,4.40
2019-04-14T07:54:39.877Z,4.60
2019-04-14T07:58:01.245Z,4.80
2019-04-14T08:01:15.756Z,4.90
2019-04-14T08:04:38.400Z,5.00
2019-04-14T08:07:42.319Z,5.10
2019-04-14T08:10:45.424Z,5.10
2019-04-14T08:13:48.599Z,5.10
2019-04-14T08:16:51.804Z,5.00
2019-04-14T08:19:54.992Z,5.00
2019-04-14T08:22:58.127Z,5.00
2019-04-14T08:26:01.420Z,5.00
2019-04-14T08:29:04.907Z,5.10
2019-04-14T08:32:08.119Z,5.10
2019-04-14T08:35:11.175Z,5.10
2019-04-14T08:38:15.430Z,5.10
2019-04-14T08:41:18.740Z,5.20
2019-04-14T08:44:29.548Z,5.30
2019-04-14T08:47:50.004Z,5.40
2019-04-14T08:51:09.886Z,5.50
2019-04-14T08:54:22.880Z,5.60
2019-04-14T08:57:51.329Z,5.60
2019-04-14T09:01:19.180Z,5.50
2019-04-14T09:04:36.984Z,5.60
2019-04-14T09:07:45.428Z,5.70
2019-04-14T09:10:51.668Z,5.80
2019-04-14T09:13:54.859Z,5.80
2019-04-14T09:16:58.192Z,5.90
2019-04-14T09:20:01.255Z,6.00
2019-04-14T09:23:05.820Z,6.20
2019-04-14T09:26:08.869Z,6.20
2019-04-14T09:29:11.970Z,6.40
2019-04-14T09:32:15.310Z,6.60
2019-04-14T09:35:18.360Z,6.50
2019-04-14T09:38:21.687Z,6.60
2019-04-14T09:41:25.597Z,6.60
2019-04-14T09:44:28.768Z,6.60
2019-04-14T09:47:31.983Z,6.70
2019-04-14T09:50:35.154Z,6.80
2019-04-14T09:53:38.471Z,6.80
2019-04-14T09:56:41.539Z,7.00
2019-04-14T09:59:44.731Z,7.00
2019-04-14T10:02:47.968Z,7.00
2019-04-14T10:05:51.119Z,6.90
2019-04-14T10:08:54.532Z,7.00
2019-04-14T10:11:57.724Z,7.00
2019-04-14T10:15:00.917Z,7.10
2019-04-14T10:18:04.044Z,7.20
2019-04-14T10:21:16.682Z,7.10
2019-04-14T10:24:12.387Z,7.20
2019-04-14T10:27:15.842Z,7.40
2019-04-14T10:30:18.943Z,7.70
2019-04-14T10:33:22.367Z,8.10
2019-04-14T10:36:25.530Z,8.30
2019-04-14T10:39:28.932Z,8.70
2019-04-14T10:42:32.288Z,8.90
2019-04-14T10:45:35.649Z,8.80
2019-04-14T10:48:38.759Z,8.60
2019-04-14T10:51:41.846Z,8.50
2019-04-14T10:54:44.913Z,8.30
2019-04-14T10:57:48.199Z,8.10
2019-04-14T11:00:51.700Z,8.10
2019-04-14T11:03:55.003Z,8.20
2019-04-14T11:07:02.423Z,8.40
2019-04-14T11:10:06.415Z,8.10
2019-04-14T11:13:09.706Z,8.10
2019-04-14T11:16:13.745Z,8.20
2019-04-14T11:19:17.060Z,8.30
2019-04-14T11:22:21.887Z,8.30
2019-04-14T11:25:24.952Z,8.20
2019-04-14T11:28:28.144Z,8.40
2019-04-14T11:31:49.540Z,8.50
2019-04-14T11:35:09.377Z,8.70
2019-04-14T11:38:15.826Z,9.00
2019-04-14T11:41:21.399Z,9.10
2019-04-14T11:44:24.591Z,9.10
2019-04-14T11:47:27.799Z,9.00
2019-04-14T11:50:30.896Z,9.10
2019-04-14T11:53:34.146Z,9.30
2019-04-14T11:56:37.383Z,9.30
2019-04-14T11:59:47.151Z,9.30
2019-04-14T12:03:18.692Z,9.20
2019-04-14T12:06:50.508Z,9.20
2019-04-14T12:10:06.047Z,9.20
2019-04-14T12:13:09.411Z,9.50
2019-04-14T12:16:12.643Z,9.70
2019-04-14T12:19:15.898Z,10.20
2019-04-14T12:22:19.031Z,9.90
2019-04-14T12:25:22.093Z,10.00
2019-04-14T12:28:26.264Z,10.10
2019-04-14T12:31:30.878Z,10.00
2019-04-14T12:34:34.675Z,10.10
2019-04-14T12:38:10.691Z,10.50
2019-04-14T12:41:19.727Z,10.80
2019-04-14T12:44:48.205Z,11.00
2019-04-14T12:48:05.680Z,11.10
2019-04-14T12:51:13.407Z,11.10
2019-04-14T12:54:16.688Z,11.10
2019-04-14T12:57:32.895Z,11.50
2019-04-14T13:00:40.033Z,11.80
2019-04-14T13:03:44.602Z,11.50
2019-04-14T13:06:47.656Z,11.60
2019-04-14T13:09:50.883Z,11.70
2019-04-14T13:12:54.056Z,11.90
2019-04-14T13:15:57.339Z,12.00
2019-04-14T13:19:00.639Z,12.20
2019-04-14T13:22:04.053Z,12.40
2019-04-14T13:25:07.488Z,12.80
2019-04-14T13:28:10.631Z,12.80
2019-04-14T13:31:13.836Z,13.40
2019-04-14T13:34:17.169Z,13.70
2019-04-14T13:37:20.335Z,13.60
2019-04-14T13:40:23.736Z,13.50
2019-04-14T13:43:27.068Z,13.20
2019-04-14T13:46:30.319Z,12.90
2019-04-14T13:49:33.548Z,12.80
2019-04-14T13:52:46.583Z,12.70
2019-04-14T13:55:42.372Z,12.50
2019-04-14T13:58:45.460Z,12.60
2019-04-14T14:01:48.663Z,12.40
2019-04-14T14:04:51.892Z,12.30
2019-04-14T14:07:55.098Z,12.30
2019-04-14T14:11:07.423Z,12.20
2019-04-14T14:14:24.383Z,12.10
2019-04-14T14:17:47.028Z,12.30
2019-04-14T14:21:24.761Z,12.40
2019-04-14T14:24:46.167Z,12.40
2019-04-14T14:27:50.467Z,12.40
2019-04-14T14:30:53.704Z,12.50
2019-04-14T14:33:56.765Z,12.70
2019-04-14T14:37:00.064Z,13.00
2019-04-14T14:40:03.983Z,12.70
2019-04-14T14:43:07.159Z,12.60
2019-04-14T14:46:32.863Z,12.50
2019-04-14T14:49:58.276Z,12.40
2019-04-14T14:53:11.514Z,12.40
2019-04-14T14:56:06.576Z,12.30
2019-04-14T14:59:09.871Z,12.40
2019-04-14T15:02:13.335Z,12.10
2019-04-14T15:05:18.180Z,11.90
2019-04-14T15:08:21.264Z,11.90
2019-04-14T15:11:24.459Z,11.90
2019-04-14T15:14:27.765Z,12.00
2019-04-14T15:17:30.967Z,12.10
2019-04-14T15:20:34.179Z,12.20
2019-04-14T15:23:37.349Z,12.20
2019-04-14T15:26:40.649Z,12.30
2019-04-14T15:29:43.741Z,12.40
2019-04-14T15:32:46.956Z,12.50
2019-04-14T15:35:50.060Z,12.20
2019-04-14T15:38:53.232Z,12.10
2019-04-14T15:41:56.468Z,12.00
2019-04-14T15:44:59.628Z,12.00
2019-04-14T15:48:02.902Z,12.00
2019-04-14T15:51:06.103Z,12.00
2019-04-14T15:54:09.406Z,12.10
2019-04-14T15:57:35.619Z,12.00
2019-04-14T16:00:56.683Z,12.00
2019-04-14T16:04:15.643Z,12.10
2019-04-14T16:07:36.972Z,12.20
2019-04-14T16:10:52.641Z,12.10
2019-04-14T16:14:14.051Z,12.00
2019-04-14T16:17:35.476Z,12.10
2019-04-14T16:20:40.818Z,12.20
2019-04-14T16:23:50.439Z,12.30
2019-04-14T16:26:53.675Z,12.40
2019-04-14T16:30:05.653Z,12.30
2019-04-14T16:33:12.368Z,12.30
2019-04-14T16:36:15.519Z,12.20
2019-04-14T16:39:18.973Z,12.10
2019-04-14T16:42:22.128Z,12.00
2019-04-14T16:45:25.341Z,11.80
2019-04-14T16:48:28.604Z,11.70
2019-04-14T16:51:36.872Z,11.50
2019-04-14T16:54:51.732Z,11.40
2019-04-14T16:58:26.659Z,11.30
2019-04-14T17:01:35.516Z,11.10
2019-04-14T17:04:38.860Z,10.90
2019-04-14T17:07:42.136Z,10.60
2019-04-14T17:10:45.308Z,10.40
2019-04-14T17:14:07.988Z,10.30
2019-04-14T17:17:38.265Z,10.10
2019-04-14T17:20:59.398Z,9.90
2019-04-14T17:24:16.853Z,9.80
2019-04-14T17:27:23.108Z,9.60
2019-04-14T17:30:45.736Z,9.50
2019-04-14T17:34:02.256Z,9.40
2019-04-14T17:37:18.176Z,9.30
2019-04-14T17:40:39.536Z,9.30
2019-04-14T17:43:47.787Z,9.20
2019-04-14T17:47:06.544Z,9.00
2019-04-14T17:50:40.150Z,8.90
2019-04-14T17:53:47.596Z,8.80
2019-04-14T17:57:27.605Z,8.80
2019-04-14T18:00:54.257Z,8.70
2019-04-14T18:04:06.467Z,8.60
2019-04-14T18:07:15.088Z,8.50
2019-04-14T18:10:43.419Z,8.50
2019-04-14T18:14:04.670Z,8.40
2019-04-14T18:17:27.217Z,8.40
2019-04-14T18:20:36.637Z,8.30
2019-04-14T18:23:39.905Z,8.20
2019-04-14T18:26:43.208Z,8.10
2019-04-14T18:30:11.822Z,8.10
2019-04-14T18:33:37.372Z,8.00
2019-04-14T18:36:56.443Z,7.90
2019-04-14T18:40:19.107Z,7.80
2019-04-14T18:43:40.535Z,7.70
2019-04-14T18:46:49.687Z,7.70
2019-04-14T18:50:14.905Z,7.70
2019-04-14T18:53:37.612Z,7.60
2019-04-14T18:57:00.192Z,7.60
2019-04-14T19:00:21.908Z,7.70
2019-04-14T19:03:25.313Z,7.60
2019-04-14T19:06:28.595Z,7.70
2019-04-14T19:09:31.997Z,7.70
2019-04-14T19:12:50.524Z,7.70
2019-04-14T19:16:06.575Z,7.60
2019-04-14T19:19:10.050Z,7.60
2019-04-14T19:22:13.370Z,7.60
2019-04-14T19:25:16.744Z,7.50
2019-04-14T19:28:20.079Z,7.50
2019-04-14T19:31:23.576Z,7.30
2019-04-14T19:34:27.189Z,7.20
2019-04-14T19:37:30.683Z,7.20
2019-04-14T19:40:35.657Z,7.10
2019-04-14T19:43:39.128Z,7.00
2019-04-14T19:46:42.500Z,7.00
2019-04-14T19:49:45.743Z,6.90
2019-04-14T19:52:49.080Z,6.80
2019-04-14T19:55:52.715Z,6.70
2019-04-14T19:58:56.025Z,6.60
2019-04-14T20:01:59.388Z,6.60
2019-04-14T20:05:03.323Z,6.60
2019-04-14T20:08:06.905Z,6.50
2019-04-14T20:11:11.360Z,6.40
2019-04-14T20:14:14.567Z,6.40
2019-04-14T20:17:49.143Z,6.30
2019-04-14T20:21:11.832Z,6.20
2019-04-14T20:24:19.656Z,6.20
2019-04-14T20:27:33.797Z,6.20
2019-04-14T20:30:44.975Z,6.10
2019-04-14T20:33:49.292Z,6.20
2019-04-14T20:36:53.198Z,6.10
2019-04-14T20:39:57.236Z,5.90
2019-04-14T20:43:01.226Z,5.80
2019-04-14T20:46:06.895Z,5.70
2019-04-14T20:49:11.417Z,5.60
2019-04-14T20:52:16.407Z,5.60
2019-04-14T20:55:20.658Z,5.50
2019-04-14T20:58:27.059Z,5.50
2019-04-14T21:01:33.025Z,5.50
2019-04-14T21:04:54.839Z,5.50
2019-04-14T21:08:37.347Z,5.40
2019-04-14T21:11:53.935Z,5.40
2019-04-14T21:15:19.791Z,5.40
2019-04-14T21:23:07.829Z,5.40
2019-04-14T21:26:33.007Z,5.20
2019-04-14T21:30:05.667Z,5.10
2019-04-14T21:33:30.892Z,5.10
2019-04-14T21:36:41.337Z,5.10
2019-04-14T21:39:51.968Z,5.10
2019-04-14T21:42:55.216Z,5.00
2019-04-14T21:45:58.469Z,4.90
2019-04-14T21:49:01.659Z,4.80
2019-04-14T21:52:25.998Z,4.70
2019-04-14T21:55:29.275Z,4.60
2019-04-14T21:58:54.891Z,4.60
2019-04-14T22:02:32.355Z,4.60
2019-04-14T22:05:47.323Z,4.60
2019-04-14T22:08:52.103Z,4.40
2019-04-14T22:11:56.572Z,4.50
2019-04-14T22:14:59.696Z,4.50
2019-04-14T22:18:02.923Z,4.40
2019-04-14T22:21:06.185Z,4.30
2019-04-14T22:24:09.195Z,4.30
2019-04-14T22:27:12.303Z,4.30
2019-04-14T22:30:15.976Z,4.20
2019-04-14T22:33:20.231Z,4.20
2019-04-14T22:36:23.288Z,4.20
2019-04-14T22:39:26.624Z,4.10
2019-04-14T22:42:29.778Z,4.10
2019-04-14T22:49:52.039Z,4.10
2019-04-14T22:52:55.340Z,3.80
2019-04-14T22:55:58.399Z,3.70
2019-04-14T22:59:01.639Z,3.70
2019-04-14T23:02:11.008Z,3.60
2019-04-14T23:05:32.515Z,3.40
2019-04-14T23:08:43.563Z,3.30
2019-04-14T23:12:06.186Z,3.30
2019-04-14T23:15:31.855Z,3.30
2019-04-14T23:19:00.076Z,3.30
2019-04-14T23:22:23.009Z,3.20
2019-04-14T23:25:26.284Z,3.10
2019-04-14T23:28:29.337Z,3.00
2019-04-14T23:31:32.528Z,2.90
2019-04-14T23:34:35.656Z,2.90
2019-04-14T23:37:38.720Z,2.90
2019-04-14T23:40:41.916Z,2.90
2019-04-14T23:43:45.097Z,2.70
2019-04-14T23:46:48.307Z,2.70
2019-04-14T23:49:51.524Z,2.60
2019-04-14T23:52:54.584Z,2.50
2019-04-14T23:55:57.789Z,2.50
2019-04-14T23:59:00.877Z,2.60
